Time;durP1;ratioP1;P1;durP2;ratioP2;P2;SDS_P1;SDS_P2;PMS_P1;PMS_P2;Temp;Humidity;BMP_temperature;BMP_pressure;BME280_temperature;BME280_humidity;BME280_pressure;Samples;Min_cycle;Max_cycle;Signal;HPM_P1;HPM_P2
2023/07/06 00:00:10;;;;;;;6.23;2.50;;;15.60;99.90;;;;;;5048531;28;20428;-68
2023/07/06 00:02:35;;;;;;;3.03;2.03;;;15.40;99.90;;;;;;5049919;28;20502;-68
2023/07/06 00:05:02;;;;;;;4.30;1.97;;;15.30;99.90;;;;;;5050138;28;20428;-67
2023/07/06 00:07:28;;;;;;;2.70;2.03;;;15.10;99.90;;;;;;5049448;28;20197;-68
2023/07/06 00:09:53;;;;;;;6.03;1.90;;;14.90;99.90;;;;;;5049541;28;20464;-68
2023/07/06 00:12:22;;;;;;;3.80;2.10;;;14.70;99.90;;;;;;5048157;28;20283;-67
2023/07/06 00:14:50;;;;;;;6.40;2.27;;;14.90;99.90;;;;;;5049711;28;20304;-68
2023/07/06 00:17:17;;;;;;;10.10;2.17;;;14.90;99.90;;;;;;5047980;28;20433;-68
2023/07/06 00:19:43;;;;;;;3.30;2.03;;;14.90;99.90;;;;;;5049261;28;20453;-68
2023/07/06 00:22:10;;;;;;;3.20;2.50;;;15.00;99.90;;;;;;5049052;28;20969;-67
2023/07/06 00:24:37;;;;;;;3.77;2.00;;;15.10;99.90;;;;;;5049240;28;20416;-67
2023/07/06 00:27:03;;;;;;;3.60;2.03;;;15.20;99.90;;;;;;5047708;28;20430;-68
2023/07/06 00:29:33;;;;;;;5.53;2.73;;;15.20;99.90;;;;;;5049027;28;20463;-68
2023/07/06 00:32:26;;;;;;;4.57;2.60;;;15.20;99.90;;;;;;5048711;28;20475;-68
2023/07/06 00:34:53;;;;;;;5.00;2.37;;;15.10;99.90;;;;;;5048946;28;20631;-69
2023/07/06 00:37:21;;;;;;;4.67;2.23;;;15.00;99.90;;;;;;5030888;28;20426;-68
2023/07/06 00:39:48;;;;;;;4.80;2.30;;;14.90;99.90;;;;;;5048672;28;20418;-68
2023/07/06 00:42:19;;;;;;;4.40;1.93;;;14.80;99.90;;;;;;5048600;28;21267;-67
2023/07/06 00:44:52;;;;;;;4.20;2.37;;;14.80;99.90;;;;;;5048702;28;20837;-67
2023/07/06 00:47:24;;;;;;;5.17;2.50;;;14.80;99.90;;;;;;5048631;28;20418;-67
2023/07/06 00:49:51;;;;;;;2.57;2.00;;;14.70;99.90;;;;;;5048569;28;20429;-67
2023/07/06 00:52:17;;;;;;;3.03;2.20;;;14.70;99.90;;;;;;5048443;28;20477;-67
2023/07/06 00:54:43;;;;;;;4.90;2.00;;;14.80;99.90;;;;;;5048711;28;20528;-67
2023/07/06 00:57:11;;;;;;;5.20;2.50;;;14.80;99.90;;;;;;5048668;28;20184;-67
2023/07/06 00:59:40;;;;;;;4.50;2.33;;;14.80;99.90;;;;;;5048465;28;20427;-67
2023/07/06 01:02:08;;;;;;;4.50;2.47;;;14.90;99.90;;;;;;5048577;28;20442;-68
2023/07/06 01:04:34;;;;;;;5.27;1.97;;;14.90;99.90;;;;;;5048942;28;20429;-69
2023/07/06 01:07:01;;;;;;;4.77;2.70;;;15.00;99.90;;;;;;5049112;28;20433;-67
2023/07/06 01:09:30;;;;;;;6.70;3.13;;;15.00;99.90;;;;;;5047494;28;20200;-68
2023/07/06 01:11:55;;;;;;;2.83;1.90;;;15.10;99.90;;;;;;5049059;28;20478;-68
2023/07/06 01:14:21;;;;;;;2.33;1.90;;;15.10;99.90;;;;;;5049068;28;20419;-68
2023/07/06 01:17:11;;;;;;;5.30;1.93;;;14.90;99.90;;;;;;5049235;28;20422;-67
2023/07/06 01:19:54;;;;;;;3.90;2.23;;;15.00;99.90;;;;;;5048834;28;20266;-67
2023/07/06 01:22:48;;;;;;;5.23;2.83;;;15.00;99.90;;;;;;5052750;28;20620;-67
2023/07/06 01:25:41;;;;;;;3.23;2.13;;;15.10;99.90;;;;;;5052905;28;20401;-68
2023/07/06 01:28:41;;;;;;;3.63;2.30;;;15.10;99.90;;;;;;5052475;28;20467;-68
2023/07/06 01:31:22;;;;;;;4.37;1.90;;;15.10;99.90;;;;;;5052216;28;20497;-68
2023/07/06 01:34:11;;;;;;;4.23;2.10;;;15.00;99.90;;;;;;5052279;28;20430;-68
2023/07/06 01:36:38;;;;;;;7.57;2.30;;;15.00;99.90;;;;;;5052442;28;20411;-67
2023/07/06 01:39:26;;;;;;;2.43;1.90;;;14.90;99.90;;;;;;5052322;28;20415;-68
2023/07/06 01:42:10;;;;;;;4.10;2.20;;;14.90;99.90;;;;;;5051973;28;20439;-67
2023/07/06 01:44:42;;;;;;;4.67;2.40;;;14.80;99.90;;;;;;5052232;28;20419;-67
2023/07/06 01:47:09;;;;;;;3.23;1.77;;;14.70;99.90;;;;;;5052431;28;20480;-68
2023/07/06 01:49:35;;;;;;;3.60;2.40;;;14.60;99.90;;;;;;5052455;28;20789;-68
2023/07/06 01:52:27;;;;;;;4.30;2.20;;;14.50;99.90;;;;;;5052008;28;20478;-67
2023/07/06 01:55:14;;;;;;;6.00;2.27;;;14.60;99.90;;;;;;5050761;28;20479;-68
2023/07/06 01:58:05;;;;;;;4.53;2.30;;;14.60;99.90;;;;;;5051667;28;20502;-68
2023/07/06 02:00:35;;;;;;;9.93;2.40;;;14.70;99.90;;;;;;5051496;28;21004;-66
2023/07/06 02:03:05;;;;;;;8.03;2.80;;;14.70;99.90;;;;;;5051515;28;20926;-66
2023/07/06 02:05:31;;;;;;;2.33;1.73;;;14.60;99.90;;;;;;5051559;28;20890;-68
2023/07/06 02:07:57;;;;;;;3.70;2.40;;;14.50;99.90;;;;;;5051344;28;20899;-68
2023/07/06 02:10:23;;;;;;;3.83;2.33;;;14.30;99.90;;;;;;5049762;28;20454;-68
2023/07/06 02:12:49;;;;;;;9.83;2.23;;;14.30;99.90;;;;;;5051316;28;20556;-68
2023/07/06 02:15:18;;;;;;;11.90;2.27;;;14.20;99.90;;;;;;5051200;28;20277;-68
2023/07/06 02:17:47;;;;;;;5.63;1.97;;;14.20;99.90;;;;;;5051396;28;20207;-68
2023/07/06 02:20:16;;;;;;;5.53;2.33;;;14.20;99.90;;;;;;5051099;28;20414;-67
2023/07/06 02:22:43;;;;;;;3.80;2.47;;;14.30;99.90;;;;;;5050975;28;20430;-68
2023/07/06 02:25:09;;;;;;;5.50;2.57;;;14.30;99.90;;;;;;5050969;28;20430;-68
2023/07/06 02:27:34;;;;;;;6.47;2.30;;;14.20;99.90;;;;;;5051112;28;20428;-68
2023/07/06 02:30:00;;;;;;;14.03;2.50;;;14.10;99.90;;;;;;5051040;28;20554;-68
2023/07/06 02:32:27;;;;;;;2.97;2.00;;;14.00;99.90;;;;;;5049834;28;20769;-68
2023/07/06 02:34:53;;;;;;;4.83;2.00;;;14.00;99.90;;;;;;5050938;28;20176;-68
2023/07/06 02:37:18;;;;;;;2.90;1.90;;;14.00;99.90;;;;;;5050725;28;20423;-68
2023/07/06 02:39:44;;;;;;;1.83;1.70;;;14.20;99.90;;;;;;5050654;28;20423;-68
2023/07/06 02:42:14;;;;;;;8.90;2.33;;;14.30;99.90;;;;;;5050689;28;20559;-68
2023/07/06 02:44:40;;;;;;;5.17;2.13;;;14.30;99.90;;;;;;5050806;28;20438;-67
2023/07/06 02:47:08;;;;;;;5.03;2.40;;;14.40;99.90;;;;;;5050786;28;20422;-68
2023/07/06 02:49:33;;;;;;;2.30;2.10;;;14.20;99.90;;;;;;5050728;28;20940;-67
2023/07/06 02:52:02;;;;;;;3.40;2.43;;;14.00;99.90;;;;;;5050323;28;20468;-68
2023/07/06 02:54:28;;;;;;;8.73;2.47;;;13.90;99.90;;;;;;5050451;28;20193;-69
2023/07/06 02:56:53;;;;;;;6.00;1.90;;;13.80;99.90;;;;;;5050469;28;20434;-68
2023/07/06 02:59:19;;;;;;;6.40;2.47;;;13.80;99.90;;;;;;5048923;28;20230;-68
2023/07/06 03:01:47;;;;;;;3.13;2.20;;;13.70;99.90;;;;;;5050155;28;20290;-68
2023/07/06 03:04:17;;;;;;;5.10;2.60;;;13.60;99.90;;;;;;5050354;28;20855;-68
2023/07/06 03:06:45;;;;;;;3.03;2.23;;;13.60;99.90;;;;;;5050209;28;20435;-68
2023/07/06 03:09:10;;;;;;;4.60;2.40;;;13.50;99.90;;;;;;5050178;28;20422;-68
2023/07/06 03:11:37;;;;;;;6.73;2.50;;;13.40;99.90;;;;;;5050084;28;20474;-68
2023/07/06 03:14:04;;;;;;;5.30;2.43;;;13.40;99.90;;;;;;5050099;28;20211;-69
2023/07/06 03:16:39;;;;;;;8.03;2.77;;;13.30;99.90;;;;;;5050101;28;20849;-68
2023/07/06 03:19:05;;;;;;;3.77;2.70;;;13.20;99.90;;;;;;5050201;28;20460;-68
2023/07/06 03:21:31;;;;;;;4.43;2.40;;;13.10;99.90;;;;;;5050022;28;20812;-68
2023/07/06 03:23:57;;;;;;;5.77;3.00;;;13.10;99.90;;;;;;5050094;28;20430;-68
2023/07/06 03:26:24;;;;;;;11.60;3.13;;;13.10;99.90;;;;;;5048575;28;20614;-69
2023/07/06 03:28:50;;;;;;;5.53;2.47;;;12.90;99.90;;;;;;5048158;28;20474;-69
2023/07/06 03:31:16;;;;;;;7.90;2.70;;;13.00;99.90;;;;;;5049611;28;20469;-68
2023/07/06 03:33:43;;;;;;;5.23;3.00;;;12.90;99.90;;;;;;5049757;28;20271;-68
2023/07/06 03:36:09;;;;;;;3.33;2.10;;;12.90;99.90;;;;;;5049578;28;21043;-68
2023/07/06 03:38:37;;;;;;;7.80;2.50;;;12.90;99.90;;;;;;5049511;28;20450;-68
2023/07/06 03:41:06;;;;;;;6.10;2.60;;;12.90;99.90;;;;;;5049491;28;20631;-68
2023/07/06 03:43:33;;;;;;;4.70;2.30;;;12.90;99.90;;;;;;5049399;28;20979;-68
2023/07/06 03:45:59;;;;;;;5.20;2.43;;;12.90;99.90;;;;;;5048097;28;20458;-68
2023/07/06 03:48:26;;;;;;;5.63;2.30;;;12.90;99.90;;;;;;5049440;28;20422;-68
2023/07/06 03:50:52;;;;;;;3.13;1.83;;;12.90;99.90;;;;;;5049326;28;20466;-68
2023/07/06 03:53:19;;;;;;;6.40;2.37;;;12.90;99.90;;;;;;5049649;28;20465;-67
2023/07/06 03:55:45;;;;;;;6.23;2.80;;;12.80;99.90;;;;;;5049515;28;20183;-67
2023/07/06 03:58:10;;;;;;;5.57;2.40;;;12.90;99.90;;;;;;5049735;28;20411;-67
2023/07/06 04:00:36;;;;;;;8.17;2.33;;;12.90;99.90;;;;;;5049687;28;20522;-67
2023/07/06 04:03:03;;;;;;;5.70;2.10;;;12.90;99.90;;;;;;5049442;28;20687;-67
2023/07/06 04:05:44;;;;;;;5.93;2.60;;;12.90;99.90;;;;;;5049226;28;20423;-67
2023/07/06 04:08:13;;;;;;;3.60;2.10;;;12.80;99.90;;;;;;5049439;28;20421;-67
2023/07/06 04:10:40;;;;;;;5.17;2.67;;;12.90;99.90;;;;;;5048926;28;20508;-68
2023/07/06 04:13:06;;;;;;;8.40;2.37;;;13.00;99.90;;;;;;5048167;28;20415;-67
2023/07/06 04:15:34;;;;;;;6.00;2.73;;;13.00;99.90;;;;;;5049902;28;20996;-67
2023/07/06 04:18:00;;;;;;;5.50;2.30;;;13.10;99.90;;;;;;5049803;28;20442;-68
2023/07/06 04:20:30;;;;;;;2.93;2.57;;;13.00;99.90;;;;;;5049512;28;20835;-68
2023/07/06 04:22:57;;;;;;;4.37;3.07;;;12.90;99.90;;;;;;5048397;28;20672;-67
2023/07/06 04:25:29;;;;;;;3.43;2.20;;;13.00;99.90;;;;;;5049948;28;21010;-67
2023/07/06 04:27:56;;;;;;;3.70;2.43;;;13.00;99.90;;;;;;5049796;28;20475;-68
2023/07/06 04:30:23;;;;;;;5.93;2.90;;;13.00;99.90;;;;;;5049504;28;20503;-67
2023/07/06 04:32:49;;;;;;;4.23;2.50;;;12.90;99.90;;;;;;5049037;28;20474;-66
2023/07/06 04:35:18;;;;;;;4.60;2.10;;;12.80;99.90;;;;;;5047516;28;20509;-67
2023/07/06 04:37:48;;;;;;;8.27;2.87;;;12.90;99.90;;;;;;5048259;28;20414;-67
2023/07/06 04:40:18;;;;;;;4.80;2.20;;;13.00;99.90;;;;;;5047417;28;20432;-67
2023/07/06 04:42:49;;;;;;;7.37;2.50;;;13.30;99.90;;;;;;5047783;28;20858;-68
2023/07/06 04:45:16;;;;;;;8.43;2.90;;;13.40;99.90;;;;;;5047299;28;21286;-67
2023/07/06 04:47:42;;;;;;;5.00;2.90;;;13.50;99.90;;;;;;5047613;28;21205;-68
2023/07/06 04:50:11;;;;;;;5.60;2.80;;;13.60;99.90;;;;;;5047265;28;20435;-68
2023/07/06 04:52:38;;;;;;;4.00;3.07;;;13.60;99.90;;;;;;5047279;28;20994;-68
2023/07/06 04:55:10;;;;;;;3.53;2.90;;;13.60;99.90;;;;;;5046499;28;20491;-68
2023/07/06 04:57:37;;;;;;;6.93;2.70;;;13.70;99.90;;;;;;5047283;28;20487;-68
2023/07/06 05:00:13;;;;;;;3.27;2.40;;;13.70;99.90;;;;;;5046736;28;20418;-69
2023/07/06 05:02:39;;;;;;;5.30;2.87;;;13.80;99.90;;;;;;5047248;28;20422;-68
2023/07/06 05:05:05;;;;;;;2.83;2.47;;;13.90;99.90;;;;;;5047110;28;20487;-68
2023/07/06 05:07:32;;;;;;;9.23;2.50;;;14.00;99.90;;;;;;5047273;28;20187;-69
2023/07/06 05:09:58;;;;;;;5.17;2.97;;;14.10;99.90;;;;;;5047094;28;20425;-68
2023/07/06 05:12:24;;;;;;;6.03;2.43;;;14.30;99.90;;;;;;5046910;28;20473;-69
2023/07/06 05:14:52;;;;;;;8.27;2.43;;;14.40;99.90;;;;;;5047184;28;20176;-68
2023/07/06 05:17:18;;;;;;;8.83;2.60;;;14.60;99.90;;;;;;5047099;28;20441;-69
2023/07/06 05:19:45;;;;;;;4.70;2.43;;;14.70;99.90;;;;;;5047221;28;20554;-68
2023/07/06 05:22:12;;;;;;;4.00;2.10;;;14.80;99.90;;;;;;5047234;28;20228;-68
2023/07/06 05:24:39;;;;;;;3.43;2.07;;;15.10;99.90;;;;;;5045761;28;20437;-68
2023/07/06 05:27:06;;;;;;;3.83;2.27;;;15.30;99.90;;;;;;5047614;28;20946;-68
2023/07/06 05:29:32;;;;;;;3.37;2.43;;;15.60;99.90;;;;;;5047449;28;20545;-68
2023/07/06 05:31:59;;;;;;;9.40;3.10;;;15.60;99.90;;;;;;5047515;28;20978;-68
2023/07/06 05:34:24;;;;;;;5.47;3.00;;;15.60;99.90;;;;;;5047629;28;20415;-68
2023/07/06 05:36:50;;;;;;;3.27;2.63;;;15.60;99.90;;;;;;5047493;28;20465;-67
2023/07/06 05:39:15;;;;;;;6.13;3.27;;;15.60;99.90;;;;;;5047417;28;20185;-68
2023/07/06 05:41:43;;;;;;;4.60;2.80;;;15.70;99.90;;;;;;5047187;28;20217;-68
2023/07/06 05:44:09;;;;;;;5.10;3.27;;;15.90;99.90;;;;;;5047424;28;20207;-68
2023/07/06 05:46:35;;;;;;;3.53;2.20;;;16.00;99.90;;;;;;5047258;28;20457;-67
2023/07/06 05:49:00;;;;;;;4.20;2.43;;;16.00;99.90;;;;;;5046997;28;20447;-67
2023/07/06 05:51:26;;;;;;;5.43;2.57;;;16.20;99.90;;;;;;5046651;28;20473;-67
2023/07/06 05:53:51;;;;;;;9.20;2.60;;;16.30;99.90;;;;;;5046626;28;20607;-67
2023/07/06 05:56:21;;;;;;;3.03;2.50;;;16.50;99.90;;;;;;5045391;28;20187;-69
2023/07/06 05:58:47;;;;;;;4.40;2.70;;;16.70;99.90;;;;;;5046671;28;20197;-67
2023/07/06 06:01:13;;;;;;;4.27;3.13;;;16.80;99.90;;;;;;5046512;28;20446;-68
2023/07/06 06:03:40;;;;;;;3.83;2.40;;;17.00;99.90;;;;;;5046753;28;20429;-67
2023/07/06 06:06:06;;;;;;;4.33;2.20;;;17.20;99.90;;;;;;5047027;28;20196;-68
2023/07/06 06:08:32;;;;;;;4.93;2.30;;;17.20;99.90;;;;;;5050085;28;20428;-68
2023/07/06 06:11:00;;;;;;;4.53;2.57;;;17.30;99.90;;;;;;5049883;28;20502;-68
2023/07/06 06:13:27;;;;;;;10.43;3.20;;;17.40;99.90;;;;;;5050032;28;20516;-68
2023/07/06 06:15:52;;;;;;;3.40;2.17;;;17.40;99.90;;;;;;5050162;28;20914;-68
2023/07/06 06:18:18;;;;;;;5.17;2.87;;;17.50;99.90;;;;;;5050084;28;20449;-68
2023/07/06 06:20:44;;;;;;;5.83;2.63;;;17.60;99.90;;;;;;5048484;28;20302;-68
2023/07/06 06:23:11;;;;;;;4.07;2.63;;;17.70;99.90;;;;;;5049785;28;20191;-67
2023/07/06 06:25:40;;;;;;;9.10;2.73;;;17.80;99.90;;;;;;5049852;28;20229;-67
2023/07/06 06:28:09;;;;;;;5.47;2.63;;;17.80;99.90;;;;;;5049522;28;20427;-68
2023/07/06 06:30:40;;;;;;;4.20;2.67;;;17.90;99.90;;;;;;5049873;28;21080;-67
2023/07/06 06:33:06;;;;;;;6.50;2.63;;;18.10;99.90;;;;;;5049859;28;20952;-67
2023/07/06 06:35:33;;;;;;;7.10;2.40;;;18.20;99.90;;;;;;5048186;28;20421;-68
2023/07/06 06:37:58;;;;;;;3.77;2.30;;;18.20;99.90;;;;;;5049480;28;20421;-68
2023/07/06 06:40:25;;;;;;;3.73;2.50;;;18.40;99.90;;;;;;5049426;28;20441;-68
2023/07/06 06:42:51;;;;;;;5.23;2.47;;;18.50;99.90;;;;;;5049477;28;20179;-68
2023/07/06 06:45:18;;;;;;;10.80;2.83;;;18.40;99.90;;;;;;5049412;28;20949;-67
2023/07/06 06:47:45;;;;;;;11.80;2.70;;;18.50;99.90;;;;;;5049406;28;20598;-68
2023/07/06 06:50:13;;;;;;;5.83;2.57;;;18.70;99.90;;;;;;5049454;28;20454;-68
2023/07/06 06:52:40;;;;;;;9.30;2.47;;;18.70;99.90;;;;;;5049355;28;20481;-68
2023/07/06 06:55:07;;;;;;;3.00;2.10;;;18.80;99.90;;;;;;5049028;28;20433;-68
2023/07/06 06:57:33;;;;;;;2.93;2.10;;;18.80;99.90;;;;;;5049318;28;20416;-68
2023/07/06 06:59:59;;;;;;;2.97;2.47;;;18.90;99.90;;;;;;5049777;28;20449;-68
2023/07/06 07:02:25;;;;;;;5.83;3.20;;;19.00;99.90;;;;;;5049917;28;20448;-68
2023/07/06 07:04:51;;;;;;;3.47;2.80;;;19.10;99.90;;;;;;5049864;28;20426;-67
2023/07/06 07:07:17;;;;;;;4.40;2.40;;;19.20;99.90;;;;;;5049878;28;20430;-68
2023/07/06 07:09:45;;;;;;;5.93;2.53;;;19.40;99.90;;;;;;5049720;28;20179;-67
2023/07/06 07:12:11;;;;;;;7.73;2.73;;;19.40;99.90;;;;;;5049484;28;20544;-67
2023/07/06 07:14:38;;;;;;;3.03;2.10;;;19.50;99.90;;;;;;5049323;28;20423;-68
2023/07/06 07:17:05;;;;;;;4.90;2.80;;;19.50;99.90;;;;;;5048834;28;20419;-67
2023/07/06 07:19:30;;;;;;;7.83;2.20;;;19.60;99.90;;;;;;5049663;28;20997;-67
2023/07/06 07:22:00;;;;;;;5.23;2.97;;;19.60;99.90;;;;;;5049077;28;20541;-67
2023/07/06 07:24:29;;;;;;;8.33;2.20;;;19.60;99.90;;;;;;5048827;28;20215;-67
2023/07/06 07:26:55;;;;;;;3.77;2.40;;;19.60;99.90;;;;;;5048680;28;20765;-66
2023/07/06 07:29:23;;;;;;;5.43;3.00;;;19.70;99.90;;;;;;5048244;28;20438;-67
2023/07/06 07:31:49;;;;;;;6.10;2.60;;;19.70;99.90;;;;;;5048114;28;20587;-67
2023/07/06 07:34:16;;;;;;;4.00;2.83;;;19.70;99.90;;;;;;5048041;28;20418;-67
2023/07/06 07:36:43;;;;;;;2.27;1.93;;;19.70;99.90;;;;;;5048547;28;20933;-71
2023/07/06 07:39:10;;;;;;;3.50;2.27;;;19.80;99.90;;;;;;5048433;28;20415;-71
2023/07/06 07:41:35;;;;;;;2.27;2.07;;;19.90;99.90;;;;;;5048355;28;20847;-70
2023/07/06 07:44:01;;;;;;;6.43;2.37;;;20.00;99.90;;;;;;5048444;28;20413;-69
2023/07/06 07:46:31;;;;;;;7.90;2.83;;;20.00;99.90;;;;;;5048117;28;20184;-70
2023/07/06 07:48:57;;;;;;;3.87;2.13;;;20.00;99.90;;;;;;5048014;28;20544;-71
2023/07/06 07:51:26;;;;;;;3.40;2.20;;;20.10;99.90;;;;;;5047929;28;20989;-72
2023/07/06 07:53:54;;;;;;;5.60;2.50;;;20.30;99.90;;;;;;5048343;28;20186;-70
2023/07/06 07:56:21;;;;;;;5.83;2.63;;;20.30;99.90;;;;;;5047932;28;20421;-70
2023/07/06 07:58:48;;;;;;;7.07;2.20;;;20.30;99.90;;;;;;5047990;28;20425;-71
2023/07/06 08:01:20;;;;;;;7.13;3.13;;;20.30;99.90;;;;;;5029558;28;20458;-70
2023/07/06 08:03:47;;;;;;;7.00;2.23;;;20.40;99.90;;;;;;5047814;28;20415;-70
2023/07/06 08:06:16;;;;;;;5.23;2.30;;;20.60;99.90;;;;;;5047944;28;20422;-70
2023/07/06 08:08:43;;;;;;;5.23;2.70;;;20.70;99.90;;;;;;5047975;28;20414;-69
2023/07/06 08:11:14;;;;;;;6.50;2.30;;;20.60;99.90;;;;;;5047977;28;20842;-72
2023/07/06 08:13:40;;;;;;;5.03;2.30;;;20.70;99.90;;;;;;5048113;28;20493;-69
2023/07/06 08:16:06;;;;;;;6.17;2.63;;;20.80;99.90;;;;;;5048057;28;20498;-70
2023/07/06 08:18:32;;;;;;;5.40;2.30;;;20.80;99.90;;;;;;5048081;28;20935;-70
2023/07/06 08:21:00;;;;;;;3.13;1.90;;;20.80;99.90;;;;;;5047769;28;20224;-69
2023/07/06 08:23:28;;;;;;;3.40;2.10;;;20.90;99.90;;;;;;5047670;28;20421;-69
2023/07/06 08:25:54;;;;;;;23.20;2.70;;;21.10;99.90;;;;;;5048096;28;20433;-70
2023/07/06 08:28:24;;;;;;;3.10;2.00;;;21.20;99.90;;;;;;5047777;28;20815;-70
2023/07/06 08:30:51;;;;;;;11.90;2.13;;;21.30;99.90;;;;;;5047436;28;20945;-70
2023/07/06 08:33:21;;;;;;;3.43;2.57;;;21.40;99.90;;;;;;5047824;28;20838;-71
2023/07/06 08:35:47;;;;;;;8.70;2.20;;;21.60;99.90;;;;;;5048127;28;20985;-69
2023/07/06 08:38:13;;;;;;;6.83;2.50;;;21.70;99.90;;;;;;5047904;28;20953;-71
2023/07/06 08:40:41;;;;;;;6.13;2.20;;;21.80;99.90;;;;;;5047901;28;20438;-71
2023/07/06 08:43:14;;;;;;;3.97;2.03;;;21.80;99.90;;;;;;5047859;28;20863;-70
2023/07/06 08:45:43;;;;;;;4.50;2.70;;;21.80;99.90;;;;;;5047925;28;20416;-70
2023/07/06 08:48:17;;;;;;;16.47;3.40;;;21.90;99.90;;;;;;5047911;28;20441;-71
2023/07/06 08:50:52;;;;;;;4.10;2.70;;;22.00;99.90;;;;;;5047474;28;20442;-71
2023/07/06 08:53:20;;;;;;;3.37;2.93;;;22.30;99.90;;;;;;5047685;28;20542;-70
2023/07/06 08:55:51;;;;;;;4.37;2.10;;;22.50;99.90;;;;;;5047301;28;20756;-70
2023/07/06 08:58:43;;;;;;;3.57;2.33;;;22.60;99.20;;;;;;5047713;28;20436;-70
2023/07/06 09:01:12;;;;;;;3.53;2.13;;;22.80;97.60;;;;;;5047095;28;20552;-71
2023/07/06 09:03:48;;;;;;;6.27;2.57;;;23.00;99.10;;;;;;5047626;28;20418;-71
2023/07/06 09:06:21;;;;;;;5.07;2.70;;;23.20;98.30;;;;;;5045995;28;20467;-70
2023/07/06 09:08:50;;;;;;;8.57;2.63;;;23.40;97.50;;;;;;5047057;28;20924;-70
2023/07/06 09:11:17;;;;;;;3.87;2.70;;;23.50;97.10;;;;;;5047093;28;20501;-71
2023/07/06 09:13:49;;;;;;;5.70;2.10;;;23.60;96.50;;;;;;5046975;28;20424;-71
2023/07/06 09:16:19;;;;;;;3.60;2.10;;;23.90;96.40;;;;;;5046962;28;20407;-70
2023/07/06 09:18:45;;;;;;;3.07;2.63;;;24.10;97.10;;;;;;5046907;28;20411;-71
2023/07/06 09:21:11;;;;;;;3.30;2.40;;;24.40;95.70;;;;;;5046853;28;20927;-70
2023/07/06 09:23:37;;;;;;;7.27;2.67;;;24.70;94.70;;;;;;5046908;28;20416;-70
2023/07/06 09:26:07;;;;;;;3.63;2.40;;;24.90;95.70;;;;;;5046871;28;20417;-70
2023/07/06 09:28:33;;;;;;;4.73;2.40;;;25.10;94.90;;;;;;5046527;28;20206;-70
2023/07/06 09:31:18;;;;;;;4.97;2.40;;;25.30;94.60;;;;;;5046570;28;20494;-70
2023/07/06 09:33:48;;;;;;;3.70;2.63;;;25.40;92.80;;;;;;5046836;28;20179;-71
2023/07/06 09:36:19;;;;;;;2.50;2.30;;;25.40;91.90;;;;;;5047449;28;20516;-69
2023/07/06 09:38:45;;;;;;;7.47;2.87;;;25.60;90.70;;;;;;5047516;28;20414;-70
2023/07/06 09:41:27;;;;;;;8.13;3.27;;;25.60;90.20;;;;;;5049368;28;20862;-70
2023/07/06 09:44:05;;;;;;;3.37;2.40;;;25.70;90.30;;;;;;5051462;28;20435;-69
2023/07/06 09:46:33;;;;;;;2.60;2.40;;;25.80;91.20;;;;;;5051168;28;20427;-70
2023/07/06 09:48:59;;;;;;;3.07;2.47;;;26.00;91.00;;;;;;5051054;28;20495;-70
2023/07/06 09:51:36;;;;;;;3.00;2.70;;;26.00;90.20;;;;;;5050998;28;20475;-69
2023/07/06 09:54:17;;;;;;;5.53;2.80;;;26.00;89.70;;;;;;5051044;28;20420;-68
2023/07/06 09:56:43;;;;;;;2.73;2.20;;;25.70;86.20;;;;;;5050532;28;20433;-70
2023/07/06 09:59:11;;;;;;;3.30;2.60;;;25.90;91.40;;;;;;5050761;28;20510;-73
2023/07/06 10:01:54;;;;;;;3.63;2.57;;;26.10;85.00;;;;;;5051267;28;20482;-71
2023/07/06 10:04:53;;;;;;;4.00;2.83;;;26.40;88.30;;;;;;5051103;28;20504;-71
2023/07/06 10:07:29;;;;;;;3.27;2.70;;;26.10;87.60;;;;;;5050897;28;20930;-69
2023/07/06 10:10:21;;;;;;;4.17;3.57;;;26.20;87.10;;;;;;5050960;28;20909;-71
2023/07/06 10:12:58;;;;;;;6.50;2.80;;;26.70;88.30;;;;;;5050932;28;20457;-71
2023/07/06 10:15:51;;;;;;;3.73;2.80;;;26.90;90.00;;;;;;5050812;28;20405;-70
2023/07/06 10:18:30;;;;;;;3.23;2.73;;;26.70;87.40;;;;;;5051311;28;20992;-71
2023/07/06 10:21:04;;;;;;;4.10;2.50;;;26.20;83.00;;;;;;5051254;28;20429;-70
2023/07/06 10:23:49;;;;;;;5.23;3.27;;;25.70;83.50;;;;;;5051315;28;20463;-69
2023/07/06 10:26:29;;;;;;;6.40;3.57;;;25.50;86.40;;;;;;5051047;28;20409;-70
2023/07/06 10:29:18;;;;;;;3.07;2.77;;;25.30;85.60;;;;;;5050877;28;20810;-71
2023/07/06 10:31:51;;;;;;;3.23;2.20;;;25.20;87.00;;;;;;5050344;28;20528;-70
2023/07/06 10:34:32;;;;;;;5.33;2.87;;;25.20;86.80;;;;;;5050515;28;20421;-70
2023/07/06 10:37:03;;;;;;;5.40;3.07;;;25.10;86.80;;;;;;5050578;28;20454;-69
2023/07/06 10:39:28;;;;;;;4.40;2.60;;;25.00;86.50;;;;;;5049928;28;20449;-71
2023/07/06 10:42:21;;;;;;;5.00;2.57;;;25.30;87.10;;;;;;5049395;28;20521;-69
2023/07/06 10:44:51;;;;;;;3.43;3.13;;;25.90;79.80;;;;;;5049587;28;20199;-70
2023/07/06 10:47:44;;;;;;;4.10;3.17;;;26.10;78.20;;;;;;5050361;28;20904;-71
2023/07/06 10:50:31;;;;;;;3.67;3.00;;;25.70;81.80;;;;;;5050121;28;20452;-72
2023/07/06 10:53:21;;;;;;;2.97;2.60;;;26.10;84.20;;;;;;5049551;28;20468;-70
2023/07/06 10:56:02;;;;;;;3.60;2.77;;;26.60;81.00;;;;;;5050131;28;20769;-70
2023/07/06 10:58:29;;;;;;;7.87;3.10;;;27.10;82.10;;;;;;5049444;28;20426;-70
2023/07/06 11:01:04;;;;;;;7.10;2.83;;;27.60;84.10;;;;;;5049471;28;20525;-72
2023/07/06 11:03:33;;;;;;;3.53;3.23;;;27.80;81.30;;;;;;5049744;28;20802;-70
2023/07/06 11:06:06;;;;;;;6.53;3.73;;;28.10;82.60;;;;;;5049092;28;20505;-70
2023/07/06 11:09:09;;;;;;;5.47;2.90;;;27.90;79.10;;;;;;5049217;28;20827;-71
2023/07/06 11:11:42;;;;;;;3.93;3.13;;;28.30;78.90;;;;;;5049025;28;20465;-69
2023/07/06 11:14:20;;;;;;;5.63;3.40;;;28.50;79.00;;;;;;5047719;28;20496;-71
2023/07/06 11:16:56;;;;;;;3.43;3.13;;;28.50;78.90;;;;;;5049510;28;20887;-69
2023/07/06 11:19:36;;;;;;;3.93;3.23;;;28.60;79.60;;;;;;5049335;28;20888;-70
2023/07/06 11:22:06;;;;;;;4.97;3.10;;;28.90;79.10;;;;;;5049058;28;20860;-70
2023/07/06 11:24:38;;;;;;;3.60;3.30;;;28.90;77.00;;;;;;5049157;28;20543;-71
2023/07/06 11:27:10;;;;;;;4.50;3.67;;;29.10;75.60;;;;;;5047704;28;21032;-71
2023/07/06 11:29:36;;;;;;;9.13;3.43;;;28.90;76.90;;;;;;5049312;28;20437;-69
2023/07/06 11:32:25;;;;;;;4.70;3.00;;;29.20;78.30;;;;;;5049052;28;20871;-69
2023/07/06 11:35:07;;;;;;;7.03;4.20;;;29.20;75.80;;;;;;5047594;28;20538;-71
2023/07/06 11:37:57;;;;;;;4.53;3.00;;;29.60;74.20;;;;;;5048604;28;20480;-70
2023/07/06 11:41:02;;;;;;;4.73;3.10;;;29.70;75.70;;;;;;5048552;28;20430;-70
2023/07/06 11:43:54;;;;;;;7.70;4.03;;;29.60;74.90;;;;;;5048624;28;20747;-73
2023/07/06 11:46:36;;;;;;;6.50;4.00;;;29.10;73.80;;;;;;5048887;28;20426;-69
2023/07/06 11:49:17;;;;;;;8.03;3.97;;;29.40;72.70;;;;;;5047048;28;21150;-70
2023/07/06 11:51:47;;;;;;;7.37;3.33;;;28.90;73.10;;;;;;5048484;28;20565;-71
2023/07/06 11:54:40;;;;;;;4.90;3.20;;;28.90;73.10;;;;;;5048605;28;20422;-71
2023/07/06 12:02:48;;;;;;;4.17;3.47;;;29.30;73.30;;;;;;5049998;28;20437;-71
2023/07/06 12:06:03;;;;;;;4.67;3.40;;;29.60;74.70;;;;;;5048085;28;20456;-70
2023/07/06 12:08:37;;;;;;;5.50;3.80;;;29.60;74.50;;;;;;5046244;28;20957;-70
2023/07/06 12:11:02;;;;;;;3.30;3.00;;;29.90;73.40;;;;;;5048316;28;20446;-70
2023/07/06 12:13:32;;;;;;;3.40;3.10;;;29.70;72.80;;;;;;5047600;28;20447;-70
2023/07/06 12:16:07;;;;;;;9.13;3.40;;;29.90;70.80;;;;;;5046366;28;20184;-68
2023/07/06 12:18:33;;;;;;;6.43;3.40;;;30.00;71.50;;;;;;5046031;28;20444;-70
2023/07/06 12:21:00;;;;;;;3.43;2.33;;;29.60;67.20;;;;;;5047802;28;20444;-70
2023/07/06 12:23:26;;;;;;;4.10;2.67;;;29.50;68.60;;;;;;5047829;28;20432;-70
2023/07/06 12:25:54;;;;;;;6.13;3.30;;;29.90;70.00;;;;;;5047885;28;20422;-69
2023/07/06 12:28:20;;;;;;;4.27;3.00;;;30.00;69.40;;;;;;5047363;28;20199;-69
2023/07/06 12:30:49;;;;;;;2.70;2.50;;;30.10;69.50;;;;;;5047837;28;21166;-70
2023/07/06 12:33:17;;;;;;;4.13;3.33;;;30.20;69.00;;;;;;5047345;28;20234;-70
2023/07/06 12:35:43;;;;;;;4.30;2.67;;;30.40;67.50;;;;;;5047532;28;20473;-71
2023/07/06 12:38:14;;;;;;;2.63;2.43;;;30.10;66.30;;;;;;5047701;28;20446;-70
2023/07/06 12:40:39;;;;;;;4.17;2.80;;;30.20;69.10;;;;;;5045958;28;20204;-70
2023/07/06 12:43:09;;;;;;;4.50;3.10;;;30.00;67.20;;;;;;5047482;28;20433;-70
2023/07/06 12:45:35;;;;;;;3.40;2.73;;;29.60;65.30;;;;;;5047565;28;20577;-70
2023/07/06 12:48:04;;;;;;;4.00;2.70;;;29.30;64.00;;;;;;5047363;28;20418;-70
2023/07/06 12:50:35;;;;;;;4.83;2.87;;;29.20;66.10;;;;;;5047222;28;20215;-70
2023/07/06 12:53:22;;;;;;;3.90;3.60;;;29.70;70.20;;;;;;5047114;28;20474;-69
2023/07/06 12:55:49;;;;;;;3.27;2.70;;;29.80;69.10;;;;;;5047010;28;20418;-70
2023/07/06 12:58:26;;;;;;;6.43;2.53;;;29.90;67.20;;;;;;5047303;28;20781;-69
2023/07/06 13:00:52;;;;;;;4.90;3.40;;;29.90;66.90;;;;;;5045554;28;20953;-69
2023/07/06 13:03:17;;;;;;;5.10;2.90;;;30.10;67.20;;;;;;5047667;28;20483;-70
2023/07/06 13:05:54;;;;;;;4.07;3.23;;;30.10;65.40;;;;;;5046014;28;20679;-70
2023/07/06 13:08:20;;;;;;;3.07;2.87;;;30.30;67.70;;;;;;5046987;28;20243;-70